createdAt,value
2018-02-07T00:01:22.151Z,82.86
2018-02-07T00:03:52.536Z,82.85
2018-02-07T00:06:20.077Z,82.72
2018-02-07T00:08:47.626Z,82.85
2018-02-07T00:11:15.308Z,82.87
2018-02-07T00:13:44.331Z,82.88
2018-02-07T00:16:12.168Z,82.92
2018-02-07T00:18:39.790Z,83.04
2018-02-07T00:21:07.318Z,83.02
2018-02-07T00:23:34.871Z,83.04
2018-02-07T00:26:02.468Z,83.28
2018-02-07T00:28:29.988Z,82.86
2018-02-07T00:30:57.552Z,82.75
2018-02-07T00:33:25.065Z,82.94
2018-02-07T00:35:52.582Z,83.03
2018-02-07T00:38:20.093Z,83.04
2018-02-07T00:40:47.602Z,83.00
2018-02-07T00:43:15.140Z,83.40
2018-02-07T00:45:42.733Z,83.38
2018-02-07T00:48:10.322Z,83.26
2018-02-07T00:50:37.968Z,83.21
2018-02-07T00:53:05.506Z,83.20
2018-02-07T00:55:33.038Z,83.11
2018-02-07T00:58:00.582Z,83.27
2018-02-07T01:00:28.132Z,83.00
2018-02-07T01:02:55.792Z,82.92
2018-02-07T01:05:23.291Z,82.62
2018-02-07T01:07:50.820Z,83.04
2018-02-07T01:10:18.401Z,82.93
2018-02-07T01:12:45.952Z,83.10
2018-02-07T01:15:13.520Z,83.10
2018-02-07T01:17:41.061Z,83.23
2018-02-07T01:20:08.659Z,83.23
2018-02-07T01:22:36.235Z,83.39
2018-02-07T01:25:03.739Z,82.90
2018-02-07T01:27:31.295Z,82.99
2018-02-07T01:29:58.787Z,83.02
2018-02-07T01:32:26.398Z,83.22
2018-02-07T01:34:54.020Z,83.07
2018-02-07T01:37:21.564Z,83.55
2018-02-07T01:39:49.089Z,83.15
2018-02-07T01:42:16.694Z,83.11
2018-02-07T01:44:44.237Z,83.15
2018-02-07T01:47:11.781Z,83.28
2018-02-07T01:49:39.320Z,83.22
2018-02-07T01:52:06.915Z,83.24
2018-02-07T01:54:34.444Z,83.22
2018-02-07T01:57:01.945Z,82.85
2018-02-07T01:59:29.473Z,83.16
2018-02-07T02:01:57.022Z,83.02
2018-02-07T02:04:24.529Z,82.97
2018-02-07T02:06:52.058Z,82.81
2018-02-07T02:09:19.660Z,83.21
2018-02-07T02:11:47.194Z,82.84
2018-02-07T02:14:14.703Z,82.05
2018-02-07T02:16:42.259Z,82.71
2018-02-07T02:19:09.840Z,82.10
2018-02-07T02:21:37.410Z,81.99
2018-02-07T02:24:04.938Z,81.90
2018-02-07T02:26:32.460Z,82.13
2018-02-07T02:28:59.971Z,82.01
2018-02-07T02:31:27.539Z,82.17
2018-02-07T02:33:55.059Z,82.14
2018-02-07T02:36:34.263Z,81.94
2018-02-07T02:39:03.221Z,81.89
2018-02-07T02:41:30.833Z,81.90
2018-02-07T02:43:58.422Z,81.84
2018-02-07T02:46:25.952Z,81.87
2018-02-07T02:48:53.488Z,81.96
2018-02-07T02:51:21.054Z,81.67
2018-02-07T02:53:48.602Z,81.78
2018-02-07T02:56:16.118Z,81.48
2018-02-07T02:58:43.652Z,81.37
2018-02-07T03:01:11.236Z,81.17
2018-02-07T03:03:39.482Z,80.87
2018-02-07T03:06:07.012Z,81.13
2018-02-07T03:08:34.511Z,81.04
2018-02-07T03:11:02.125Z,80.92
2018-02-07T03:13:29.629Z,80.97
2018-02-07T03:15:57.173Z,80.57
2018-02-07T03:18:24.741Z,80.32
2018-02-07T03:20:52.266Z,80.25
2018-02-07T03:23:21.668Z,80.32
2018-02-07T03:25:49.260Z,80.13
2018-02-07T03:28:17.899Z,80.12
2018-02-07T03:30:45.482Z,80.20
2018-02-07T03:33:12.988Z,79.86
2018-02-07T03:35:40.541Z,80.05
2018-02-07T03:38:08.073Z,80.38
2018-02-07T03:40:35.628Z,80.33
2018-02-07T03:43:03.130Z,80.25
2018-02-07T03:45:30.750Z,80.22
2018-02-07T03:47:58.280Z,80.32
2018-02-07T03:50:25.814Z,80.17
2018-02-07T03:52:53.372Z,80.30
2018-02-07T03:55:20.911Z,80.25
2018-02-07T03:57:48.456Z,80.58
2018-02-07T04:00:16.014Z,80.58
2018-02-07T04:02:43.611Z,80.66
2018-02-07T04:05:11.150Z,80.20
2018-02-07T04:07:38.691Z,80.30
2018-02-07T04:10:06.250Z,80.42
2018-02-07T04:12:33.821Z,80.03
2018-02-07T04:15:01.475Z,80.01
2018-02-07T04:17:29.454Z,79.97
2018-02-07T04:19:57.088Z,79.86
2018-02-07T04:22:24.646Z,79.92
2018-02-07T04:24:52.236Z,79.74
2018-02-07T04:27:19.767Z,79.89
2018-02-07T04:29:47.321Z,79.69
2018-02-07T04:32:14.840Z,79.55
2018-02-07T04:34:42.426Z,79.94
2018-02-07T04:37:09.972Z,79.94
2018-02-07T04:39:37.532Z,79.89
2018-02-07T04:42:05.196Z,80.07
2018-02-07T04:44:32.718Z,80.18
2018-02-07T04:47:00.251Z,80.19
2018-02-07T04:49:27.814Z,80.34
2018-02-07T04:51:55.354Z,80.57
2018-02-07T04:54:22.964Z,80.72
2018-02-07T04:56:50.472Z,80.81
2018-02-07T04:59:18.137Z,81.09
2018-02-07T05:01:45.741Z,81.07
2018-02-07T05:04:13.789Z,81.10
2018-02-07T05:06:42.813Z,80.94
2018-02-07T05:09:10.431Z,80.97
2018-02-07T05:11:37.959Z,80.91
2018-02-07T05:14:05.497Z,80.86
2018-02-07T05:16:33.114Z,80.91
2018-02-07T05:19:00.728Z,81.16
2018-02-07T05:21:28.251Z,81.07
2018-02-07T05:23:55.754Z,81.35
2018-02-07T05:26:23.271Z,81.31
2018-02-07T05:28:50.806Z,81.17
2018-02-07T05:31:18.405Z,81.36
2018-02-07T05:33:45.908Z,81.50
2018-02-07T05:36:13.437Z,81.71
2018-02-07T05:38:40.983Z,81.72
2018-02-07T05:41:08.570Z,81.76
2018-02-07T05:43:37.209Z,81.74
2018-02-07T05:46:04.760Z,81.76
2018-02-07T05:48:32.360Z,81.71
2018-02-07T05:50:59.911Z,81.72
2018-02-07T05:53:27.922Z,81.69
2018-02-07T05:55:55.504Z,81.59
2018-02-07T05:58:23.001Z,81.60
2018-02-07T06:00:50.520Z,81.55
2018-02-07T06:03:18.049Z,81.54
2018-02-07T06:05:45.619Z,81.02
2018-02-07T06:08:13.144Z,81.32
2018-02-07T06:10:41.185Z,81.46
2018-02-07T06:13:08.744Z,81.65
2018-02-07T06:15:36.376Z,81.75
2018-02-07T06:18:04.056Z,82.07
2018-02-07T06:20:31.583Z,82.23
2018-02-07T06:22:59.104Z,81.93
2018-02-07T06:25:26.624Z,81.99
2018-02-07T06:27:54.205Z,81.89
2018-02-07T06:30:21.700Z,82.06
2018-02-07T06:32:49.256Z,82.07
2018-02-07T06:35:16.775Z,81.77
2018-02-07T06:37:44.333Z,82.13
2018-02-07T06:40:11.854Z,82.27
2018-02-07T06:42:39.365Z,82.24
2018-02-07T06:45:06.925Z,82.38
2018-02-07T06:47:34.515Z,82.67
2018-02-07T06:50:02.053Z,82.69
2018-02-07T06:52:29.647Z,82.63
2018-02-07T06:54:57.176Z,82.76
2018-02-07T06:57:24.674Z,82.40
2018-02-07T06:59:52.208Z,82.46
2018-02-07T07:02:19.694Z,82.36
2018-02-07T07:04:47.260Z,82.46
2018-02-07T07:07:14.831Z,82.26
2018-02-07T07:09:42.371Z,82.29
2018-02-07T07:12:09.946Z,82.27
2018-02-07T07:14:37.496Z,82.48
2018-02-07T07:17:04.991Z,82.39
2018-02-07T07:19:32.485Z,82.10
2018-02-07T07:22:00.497Z,82.21
2018-02-07T07:24:28.081Z,82.01
2018-02-07T07:26:55.593Z,81.93
2018-02-07T07:29:23.135Z,81.84
2018-02-07T07:31:50.696Z,81.94
2018-02-07T07:34:18.236Z,81.96
2018-02-07T07:36:45.769Z,82.19
2018-02-07T07:39:14.214Z,82.29
2018-02-07T07:41:41.840Z,82.27
2018-02-07T07:44:09.365Z,82.53
2018-02-07T07:46:36.907Z,82.36
2018-02-07T07:49:04.443Z,82.31
2018-02-07T07:51:31.998Z,82.50
2018-02-07T07:53:59.488Z,82.54
2018-02-07T07:56:26.995Z,82.45
2018-02-07T07:58:54.535Z,82.50
2018-02-07T08:01:22.039Z,83.12
2018-02-07T08:03:49.559Z,82.89
2018-02-07T08:06:17.069Z,83.03
2018-02-07T08:08:44.610Z,82.77
2018-02-07T08:11:13.393Z,82.82
2018-02-07T08:13:41.787Z,82.40
2018-02-07T08:16:09.296Z,82.68
2018-02-07T08:18:38.151Z,83.10
2018-02-07T08:21:05.729Z,83.07
2018-02-07T08:23:33.242Z,83.03
2018-02-07T08:26:00.727Z,82.78
2018-02-07T08:28:28.269Z,82.84
2018-02-07T08:30:55.854Z,83.10
2018-02-07T08:33:23.305Z,83.21
2018-02-07T08:35:50.879Z,82.89
2018-02-07T08:38:18.412Z,82.96
2018-02-07T08:40:45.945Z,82.87
2018-02-07T08:43:13.498Z,83.21
2018-02-07T08:45:41.214Z,83.39
2018-02-07T08:48:08.953Z,83.27
2018-02-07T08:50:36.494Z,83.09
2018-02-07T08:53:04.111Z,83.18
2018-02-07T08:55:31.708Z,83.00
2018-02-07T08:57:59.207Z,82.96
2018-02-07T09:00:26.722Z,83.24
2018-02-07T09:02:54.246Z,82.24
2018-02-07T09:05:21.760Z,82.84
2018-02-07T09:07:49.404Z,82.62
2018-02-07T09:10:16.981Z,83.13
2018-02-07T09:12:44.513Z,83.14
2018-02-07T09:15:12.184Z,82.56
2018-02-07T09:17:39.701Z,82.49
2018-02-07T09:20:07.213Z,82.67
2018-02-07T09:22:34.732Z,82.73
2018-02-07T09:25:02.240Z,82.67
2018-02-07T09:27:30.392Z,82.43
2018-02-07T09:29:57.882Z,82.31
2018-02-07T09:32:25.521Z,82.05
2018-02-07T09:34:53.022Z,80.94
2018-02-07T09:37:20.564Z,80.48
2018-02-07T09:39:48.092Z,80.66
2018-02-07T09:42:15.736Z,80.53
2018-02-07T09:44:43.340Z,80.12
2018-02-07T09:47:11.275Z,80.21
2018-02-07T09:49:38.833Z,80.17
2018-02-07T09:52:06.436Z,80.23
2018-02-07T09:54:34.125Z,80.73
2018-02-07T09:57:03.466Z,79.87
2018-02-07T09:59:30.969Z,80.20
2018-02-07T10:01:58.866Z,80.09
2018-02-07T10:04:26.670Z,79.59
2018-02-07T10:06:54.244Z,79.60
2018-02-07T10:09:22.015Z,79.44
2018-02-07T10:11:49.581Z,79.83
2018-02-07T10:14:17.120Z,80.28
2018-02-07T10:16:44.627Z,81.87
2018-02-07T10:19:12.267Z,82.56
2018-02-07T10:21:39.800Z,82.25
2018-02-07T10:24:07.333Z,82.45
2018-02-07T10:26:34.849Z,82.60
2018-02-07T10:29:02.353Z,82.89
2018-02-07T10:31:29.876Z,82.65
2018-02-07T10:33:57.499Z,82.09
2018-02-07T10:36:25.008Z,81.59
2018-02-07T10:38:52.533Z,81.88
2018-02-07T10:41:20.031Z,80.93
2018-02-07T10:43:47.533Z,81.14
2018-02-07T10:46:15.052Z,81.52
2018-02-07T10:48:42.865Z,81.35
2018-02-07T10:51:10.753Z,81.28
2018-02-07T10:53:38.299Z,81.59
2018-02-07T10:56:05.837Z,80.22
2018-02-07T10:58:34.382Z,79.51
2018-02-07T11:01:01.990Z,79.15
2018-02-07T11:03:29.566Z,78.92
2018-02-07T11:05:58.410Z,78.66
2018-02-07T11:08:26.248Z,78.07
2018-02-07T11:10:53.874Z,77.65
2018-02-07T11:13:21.447Z,76.93
2018-02-07T11:15:48.962Z,77.41
2018-02-07T11:18:16.524Z,77.15
2018-02-07T11:20:44.018Z,76.72
2018-02-07T11:23:11.505Z,76.29
2018-02-07T11:25:39.002Z,77.26
2018-02-07T11:28:06.522Z,76.75
2018-02-07T11:30:34.022Z,76.30
2018-02-07T11:33:01.553Z,76.36
2018-02-07T11:35:29.094Z,76.08
2018-02-07T11:37:56.656Z,76.33
2018-02-07T11:40:24.213Z,77.19
2018-02-07T11:42:51.748Z,77.36
2018-02-07T11:45:19.255Z,77.87
2018-02-07T11:47:46.840Z,77.81
2018-02-07T11:50:14.353Z,76.01
2018-02-07T11:52:41.914Z,76.25
2018-02-07T11:55:09.424Z,75.51
2018-02-07T11:57:37.116Z,75.55
2018-02-07T12:00:04.668Z,75.61
2018-02-07T12:02:32.189Z,75.30
2018-02-07T12:04:59.760Z,73.79
2018-02-07T12:07:27.358Z,73.86
2018-02-07T12:09:54.911Z,73.57
2018-02-07T12:12:22.459Z,74.23
2018-02-07T12:14:49.991Z,74.81
2018-02-07T12:17:17.567Z,75.26
2018-02-07T12:19:45.091Z,74.88
2018-02-07T12:22:12.626Z,75.49
2018-02-07T12:24:40.145Z,75.42
2018-02-07T12:27:07.654Z,75.43
2018-02-07T12:29:35.381Z,75.98
2018-02-07T12:32:03.062Z,76.02
2018-02-07T12:34:30.579Z,76.22
2018-02-07T12:36:58.074Z,76.59
2018-02-07T12:39:25.696Z,76.38
2018-02-07T12:41:53.200Z,75.76
2018-02-07T12:44:20.720Z,75.26
2018-02-07T12:46:48.208Z,75.38
2018-02-07T12:49:15.750Z,75.23
2018-02-07T12:51:43.228Z,75.42
2018-02-07T12:54:10.733Z,75.76
2018-02-07T12:56:38.257Z,75.78
2018-02-07T12:59:06.466Z,75.91
2018-02-07T13:01:33.963Z,75.10
2018-02-07T13:04:01.465Z,74.85
2018-02-07T13:06:28.977Z,75.21
2018-02-07T13:08:56.467Z,74.72
2018-02-07T13:11:23.958Z,74.34
2018-02-07T13:13:52.336Z,73.80
2018-02-07T13:16:19.842Z,73.41
2018-02-07T13:18:47.369Z,73.47
2018-02-07T13:21:14.860Z,73.22
2018-02-07T13:23:42.360Z,73.33
2018-02-07T13:26:09.892Z,73.40
2018-02-07T13:28:37.416Z,73.31
2018-02-07T13:31:04.928Z,73.91
2018-02-07T13:33:32.441Z,73.72
2018-02-07T13:36:00.108Z,73.40
2018-02-07T13:38:27.655Z,73.16
2018-02-07T13:40:55.149Z,73.15
2018-02-07T13:43:22.670Z,72.99
2018-02-07T13:45:50.170Z,72.92
2018-02-07T13:48:17.654Z,72.92
2018-02-07T13:50:45.176Z,72.66
2018-02-07T13:53:12.704Z,72.65
2018-02-07T13:55:40.208Z,72.46
2018-02-07T13:58:07.765Z,72.72
2018-02-07T14:00:40.881Z,72.79
2018-02-07T14:03:08.405Z,72.72
2018-02-07T14:05:35.908Z,72.16
2018-02-07T14:08:03.430Z,72.69
2018-02-07T14:10:30.915Z,72.48
2018-02-07T14:12:58.494Z,73.00
2018-02-07T14:15:25.973Z,73.37
2018-02-07T14:17:53.547Z,73.62
2018-02-07T14:20:21.055Z,73.54
2018-02-07T14:22:48.616Z,73.98
2018-02-07T14:25:16.164Z,73.78
2018-02-07T14:27:43.735Z,74.23
2018-02-07T14:30:11.244Z,74.20
2018-02-07T14:32:38.746Z,74.32
2018-02-07T14:35:06.252Z,73.87
2018-02-07T14:37:33.746Z,73.79
2018-02-07T14:40:01.237Z,73.77
2018-02-07T14:42:28.723Z,73.67
2018-02-07T14:44:56.250Z,73.96
2018-02-07T14:47:23.746Z,73.58
2018-02-07T14:49:51.264Z,73.58
2018-02-07T14:52:18.775Z,72.99
2018-02-07T14:54:46.278Z,73.06
2018-02-07T14:57:13.749Z,73.19
2018-02-07T14:59:41.254Z,73.05
2018-02-07T15:02:08.765Z,73.02
2018-02-07T15:04:36.292Z,72.86
2018-02-07T15:07:03.815Z,73.12
2018-02-07T15:09:31.398Z,73.24
2018-02-07T15:11:58.901Z,73.54
2018-02-07T15:14:26.466Z,73.50
2018-02-07T15:16:54.026Z,73.76
2018-02-07T15:19:22.289Z,73.67
2018-02-07T15:21:49.861Z,73.48
2018-02-07T15:24:17.351Z,74.26
2018-02-07T15:26:44.940Z,74.39
2018-02-07T15:29:12.434Z,74.72
2018-02-07T15:31:40.612Z,74.83
2018-02-07T15:34:08.112Z,74.74
2018-02-07T15:36:35.629Z,73.79
2018-02-07T15:39:03.189Z,73.54
2018-02-07T15:41:32.286Z,73.51
2018-02-07T15:43:59.836Z,73.63
2018-02-07T15:46:27.409Z,73.71
2018-02-07T15:48:54.995Z,73.58
2018-02-07T15:51:22.638Z,73.93
2018-02-07T15:53:50.297Z,74.02
2018-02-07T15:56:18.293Z,74.43
2018-02-07T15:58:45.873Z,74.65
2018-02-07T16:01:13.516Z,74.77
2018-02-07T16:03:40.987Z,75.11
2018-02-07T16:06:08.599Z,75.46
2018-02-07T16:08:36.302Z,75.59
2018-02-07T16:11:03.845Z,75.81
2018-02-07T16:13:31.326Z,76.17
2018-02-07T16:16:00.110Z,76.13
2018-02-07T16:18:27.699Z,76.57
2018-02-07T16:20:55.177Z,76.70
2018-02-07T16:23:22.712Z,76.76
2018-02-07T16:25:50.214Z,77.01
2018-02-07T16:28:17.730Z,77.62
2018-02-07T16:30:45.275Z,77.39
2018-02-07T16:33:12.812Z,77.53
2018-02-07T16:35:40.343Z,77.69
2018-02-07T16:38:07.863Z,77.93
2018-02-07T16:40:35.388Z,78.18
2018-02-07T16:43:02.911Z,78.31
2018-02-07T16:45:30.419Z,78.46
2018-02-07T16:47:57.947Z,78.67
2018-02-07T16:50:25.460Z,78.79
2018-02-07T16:52:52.952Z,79.07
2018-02-07T16:55:20.474Z,79.25
2018-02-07T16:57:48.703Z,79.58
2018-02-07T17:00:16.204Z,79.74
2018-02-07T17:02:43.773Z,79.91
2018-02-07T17:05:11.331Z,80.28
2018-02-07T17:07:38.840Z,80.29
2018-02-07T17:10:08.712Z,80.62
2018-02-07T17:12:36.243Z,80.75
2018-02-07T17:15:03.831Z,80.92
2018-02-07T17:17:31.342Z,81.12
2018-02-07T17:19:58.851Z,81.36
2018-02-07T17:22:26.435Z,81.62
2018-02-07T17:24:53.962Z,81.81
2018-02-07T17:27:21.487Z,82.01
2018-02-07T17:29:49.048Z,82.07
2018-02-07T17:32:16.733Z,82.25
2018-02-07T17:34:44.234Z,82.50
2018-02-07T17:37:11.765Z,82.74
2018-02-07T17:39:39.287Z,82.80
2018-02-07T17:42:06.845Z,83.03
2018-02-07T17:44:34.374Z,83.32
2018-02-07T17:47:01.866Z,83.49
2018-02-07T17:49:29.418Z,83.86
2018-02-07T17:51:56.942Z,84.02
2018-02-07T17:54:24.480Z,84.14
2018-02-07T17:56:52.000Z,84.34
2018-02-07T17:59:19.520Z,84.42
2018-02-07T18:01:47.288Z,84.56
2018-02-07T18:04:15.031Z,84.63
2018-02-07T18:06:42.568Z,84.78
2018-02-07T18:09:10.091Z,84.73
2018-02-07T18:11:37.609Z,84.71
2018-02-07T18:14:05.123Z,84.75
2018-02-07T18:16:32.648Z,84.92
2018-02-07T18:19:00.163Z,84.86
2018-02-07T18:21:27.673Z,84.94
2018-02-07T18:23:55.200Z,84.96
2018-02-07T18:26:22.706Z,85.13
2018-02-07T18:28:50.225Z,85.26
2018-02-07T18:31:17.759Z,85.36
2018-02-07T18:33:45.344Z,85.37
2018-02-07T18:36:12.867Z,85.53
2018-02-07T18:38:40.433Z,85.38
2018-02-07T18:41:07.996Z,85.45
2018-02-07T18:43:35.497Z,85.41
2018-02-07T18:46:03.015Z,85.31
2018-02-07T18:48:30.579Z,85.16
2018-02-07T18:50:58.235Z,85.15
2018-02-07T18:53:25.821Z,85.28
2018-02-07T18:55:53.342Z,85.28
2018-02-07T18:58:20.854Z,85.29
2018-02-07T19:00:48.360Z,85.53
2018-02-07T19:03:15.873Z,85.54
2018-02-07T19:05:43.378Z,85.41
2018-02-07T19:08:10.871Z,85.42
2018-02-07T19:10:38.379Z,85.25
2018-02-07T19:13:05.893Z,85.26
2018-02-07T19:15:33.393Z,85.17
2018-02-07T19:18:00.912Z,85.32
2018-02-07T19:20:29.469Z,85.42
2018-02-07T19:22:57.461Z,85.40
2018-02-07T19:25:25.290Z,85.51
2018-02-07T19:27:53.349Z,85.74
2018-02-07T19:30:21.234Z,85.48
2018-02-07T19:32:49.096Z,85.60
2018-02-07T19:35:16.914Z,85.81
2018-02-07T19:37:44.766Z,85.87
2018-02-07T19:40:12.337Z,85.97
2018-02-07T19:42:39.993Z,85.93
2018-02-07T19:45:07.516Z,85.88
2018-02-07T19:47:35.001Z,85.88
2018-02-07T19:50:02.510Z,86.48
2018-02-07T19:52:30.016Z,86.40
2018-02-07T19:54:58.369Z,86.41
2018-02-07T19:57:28.220Z,86.24
2018-02-07T19:59:55.752Z,86.42
2018-02-07T20:02:23.247Z,86.21
2018-02-07T20:04:51.044Z,86.17
2018-02-07T20:07:20.274Z,86.52
2018-02-07T20:09:48.168Z,86.92
2018-02-07T20:12:15.977Z,86.73
2018-02-07T20:14:43.767Z,86.83
2018-02-07T20:17:11.648Z,86.91
2018-02-07T20:19:39.418Z,87.18
2018-02-07T20:22:07.143Z,87.09
2018-02-07T20:24:34.655Z,87.00
2018-02-07T20:27:02.164Z,87.13
2018-02-07T20:29:29.654Z,87.27
2018-02-07T20:31:57.196Z,87.36
2018-02-07T20:34:24.714Z,87.48
2018-02-07T20:36:52.250Z,87.29
2018-02-07T20:39:19.811Z,87.24
2018-02-07T20:41:47.431Z,87.32
2018-02-07T20:44:14.944Z,87.36
2018-02-07T20:46:42.472Z,87.35
2018-02-07T20:49:09.958Z,87.19
2018-02-07T20:51:37.480Z,86.79
2018-02-07T20:54:05.037Z,86.91
2018-02-07T20:56:32.551Z,86.85
2018-02-07T20:59:00.121Z,86.87
2018-02-07T21:34:26.370Z,86.74
2018-02-07T21:36:53.889Z,86.42
2018-02-07T21:39:21.495Z,86.38
2018-02-07T21:41:49.039Z,86.06
2018-02-07T21:44:16.678Z,86.32
2018-02-07T21:46:44.195Z,86.35
2018-02-07T21:49:11.716Z,86.14
2018-02-07T21:51:39.214Z,85.72
2018-02-07T21:54:06.722Z,85.44
2018-02-07T21:56:34.254Z,84.92
2018-02-07T21:59:01.766Z,84.86
2018-02-07T22:01:29.288Z,84.76
2018-02-07T22:03:56.908Z,84.72
2018-02-07T22:06:24.486Z,84.65
2018-02-07T22:08:52.021Z,84.53
2018-02-07T22:11:19.572Z,84.43
2018-02-07T22:13:47.115Z,84.61
2018-02-07T22:16:14.622Z,84.93
2018-02-07T22:18:42.129Z,85.00
2018-02-07T22:21:09.735Z,85.09
2018-02-07T22:23:37.421Z,85.32
2018-02-07T22:26:04.987Z,85.15
2018-02-07T22:28:32.672Z,85.17
2018-02-07T22:31:00.338Z,84.44
2018-02-07T22:33:27.872Z,84.28
2018-02-07T22:35:55.436Z,84.39
2018-02-07T22:38:23.103Z,84.63
2018-02-07T22:40:50.720Z,84.80
2018-02-07T22:43:18.277Z,85.01
2018-02-07T22:45:45.879Z,84.93
2018-02-07T22:48:13.438Z,85.07
2018-02-07T22:50:41.263Z,84.86
2018-02-07T22:53:08.827Z,85.64
2018-02-07T22:55:36.475Z,86.50
2018-02-07T22:58:05.541Z,86.15
2018-02-07T23:00:33.294Z,86.44
2018-02-07T23:06:07.040Z,86.38
2018-02-07T23:08:34.658Z,86.66
2018-02-07T23:11:02.241Z,86.77
2018-02-07T23:13:29.826Z,87.00
2018-02-07T23:15:57.406Z,86.94
2018-02-07T23:18:24.992Z,86.84
2018-02-07T23:20:52.560Z,86.87
2018-02-07T23:23:20.055Z,86.73
2018-02-07T23:25:47.611Z,86.61
2018-02-07T23:28:15.270Z,86.36
2018-02-07T23:30:42.806Z,86.87
2018-02-07T23:33:10.385Z,87.08
2018-02-07T23:35:37.941Z,86.01
2018-02-07T23:38:05.515Z,86.18
2018-02-07T23:40:33.129Z,86.34
2018-02-07T23:43:00.686Z,86.27
2018-02-07T23:45:28.239Z,86.07
2018-02-07T23:47:55.847Z,86.17
2018-02-07T23:50:23.401Z,86.03
2018-02-07T23:52:50.906Z,85.86
2018-02-07T23:55:18.428Z,86.09
2018-02-07T23:57:46.614Z,86.37
